Airfield :
LOGIN :

Register | Disclaimer

   EN    FR    IT 

 










Legend :    VFR   Marginal VFR   IFR   Intensive IFR   Very Intensive IFR
Visi :
Ceiling :
>= 8 km
>= 3000ft
5 to 8 km
1000 to 3000 ft
1500m to 5 km
500 to 1000 ft
800 to 1500m
200 to 500 ft
< 800m
< 200 ft
Symbols :   Thunderstorms  Fog  Heavy snow  Heavy precipitations  Wind > 20 kt
SIGMETs :     Misc.  Thunderstorms  Icing  Turbulence  Mountain Waves  Volcanic Ashes







- Airport Elevation : 466 ft


LHPA - Pápa

CURRENT METAR :
  • 171345Z 23004KT 9999 FEW040 23/15 Q1014 NOSIG RMK BLU

EXPIRED METARs :
  • 171315Z 29004KT 9999 FEW033 23/16 Q1014 NOSIG RMK BLU
  • 171245Z 29002KT 9999 FEW033 SCT083 22/14 Q1014 NOSIG RMK BLU
  • 171215Z 32004KT 9999 FEW030 SCT083 22/15 Q1015 NOSIG RMK BLU
  • 171145Z 32004KT 9999 FEW027 BKN083 21/15 Q1015 NOSIG RMK BLU
  • 171115Z 32006KT 290V010 9999 FEW027 BKN083 21/14 Q1015 NOSIG RMK BLU

TAF TAF LHPA
Valid from the 17 at 12:00 until the 18 at 12:00 UTC


171115Z 1712/1812 35008KT CAVOK
TEMPO 1712/1721 9999 SCT040 BKN083
PROB30
TEMPO 1714/1718 9999 -SHRA SCT040TCU SCT083
TEMPO 1718/1723 36004KT
BECMG 1800/1803 35012KT
TEMPO 1803/1808 35014G24KT
BECMG 1810/1812 35008KT
No reported NOTAMs for that airfield.



MET'MAP, your aeronautical weather chart ! - Copyright ORBIFLY December 2007 - Disclaimer

ORBIFLY MET'MAP TEAM :

Programming & Development : Alexandra Zaïnal
Concept & Development : Baudouin d'Aumeries
Co-Development & Prog : Marc-Olivier Méhu
Technical & hardware support : Manuel Goepfert

Contact : metmap@orbifly.com




SOURCES & CREDITS :

   NOAA